Bowling Green Warren County Regional Airport
KBWG : rendu visible

Aérodrome :











RETROUVEZ-NOUS SUR...

 
LOGIN :

S'inscrire | Disclaimer

   EN    FR    IT 

 









Légende :    VFR   VFR Marginal   IFR   IFR Intensif   IFR Très Intensif
Visi : 
Plafond : 
>= 8 km
>= 3000ft
5 à 8 km
1000 à 3000 ft
1500m à 5 km
500 à 1000 ft
800 à 1500m
200 à 500 ft
< 800m
< 200 ft
Symboles :   Orages  Brouillard  Fortes neiges  Fortes précipitations  Vent > 20 kt






- Altitude de l'aérodrome : 547 ft


KBWG - Bowling Green Warren County Regional

DERNIER METAR :
  • 100653Z AUTO 32011G21KT 10SM CLR 07/M07 A3000 RMK AO2 SLP156 T00721072

METARs EXPIRÉS :
  • 100553Z AUTO VRB06G22KT 10SM CLR 08/M03 A2998 RMK AO2 PK WND 35028/0503 SLP150 T00781028 10150 20078 401720078 53034
  • 100453Z AUTO 33009G18KT 10SM CLR 11/M06 A2991 RMK AO2 SLP127 T01111056

TAF KBWG
Valide du 10 à 06h jusqu'au 11 à 06h UTC


100520Z 1006/1106 32008G17KT P6SM SCT120
FM100800 33008KT P6SM SCT150
FM101400 34012G17KT P6SM SKC



MET'MAP, la Météo Aéronautique d'un coup d'oeil ! - Copyright ORBIFLY Décembre 2007 - Disclaimer

ORBIFLY MET'MAP TEAM :

Programmation & Développement : Alexandra Zaïnal
Sur une idée originale de : Baudouin d'Aumeries
Assistance à la programmation : Marc-Olivier Méhu
Soutien technique & logistique : Manuel Goepfert

Contact : metmap@orbifly.com




SOURCES & CREDITS :

   NOAA       Earth
Advisory